createdAt,value
2023-04-15T00:00:34.853Z,-1.80
2023-04-15T00:03:38.638Z,-1.66
2023-04-15T00:06:42.812Z,-1.48
2023-04-15T00:09:47.100Z,-1.30
2023-04-15T00:12:50.104Z,-1.15
2023-04-15T00:15:53.577Z,-1.00
2023-04-15T00:18:57.504Z,-0.80
2023-04-15T00:22:01.783Z,-0.62
2023-04-15T00:25:06.015Z,-0.48
2023-04-15T00:28:10.004Z,-0.52
2023-04-15T00:31:13.748Z,-0.53
2023-04-15T00:34:17.640Z,-0.56
2023-04-15T00:37:20.743Z,-0.43
2023-04-15T00:40:25.620Z,-0.29
2023-04-15T00:43:32.063Z,-0.14
2023-04-15T00:46:38.840Z,0.02
2023-04-15T00:49:42.023Z,0.17
2023-04-15T00:52:45.677Z,0.36
2023-04-15T00:55:49.343Z,0.53
2023-04-15T00:58:53.259Z,0.64
2023-04-15T01:01:57.141Z,0.84
2023-04-15T01:05:01.551Z,0.85
2023-04-15T01:08:06.491Z,1.06
2023-04-15T01:11:13.684Z,1.19
2023-04-15T01:14:18.035Z,1.41
2023-04-15T01:17:22.155Z,1.60
2023-04-15T01:20:25.495Z,1.81
2023-04-15T01:23:29.999Z,1.95
2023-04-15T01:26:33.892Z,1.95
2023-04-15T01:29:39.725Z,1.94
2023-04-15T01:32:43.204Z,2.09
2023-04-15T01:35:48.271Z,1.95
2023-04-15T01:38:52.548Z,2.08
2023-04-15T01:41:59.389Z,2.13
2023-04-15T01:45:04.425Z,2.22
2023-04-15T01:48:08.246Z,2.26
2023-04-15T01:51:14.007Z,2.51
2023-04-15T01:54:18.292Z,2.47
2023-04-15T01:57:22.031Z,2.47
2023-04-15T02:00:28.471Z,2.55
2023-04-15T02:03:33.065Z,2.74
2023-04-15T02:06:37.481Z,2.78
2023-04-15T02:09:41.223Z,2.98
2023-04-15T02:12:45.489Z,3.22
2023-04-15T02:15:50.661Z,3.27
2023-04-15T02:18:55.714Z,3.40
2023-04-15T02:22:00.823Z,3.60
2023-04-15T02:25:04.246Z,3.82
2023-04-15T02:28:09.000Z,4.08
2023-04-15T02:31:13.135Z,4.39
2023-04-15T02:34:17.248Z,4.63
2023-04-15T02:37:21.556Z,4.82
2023-04-15T02:40:25.124Z,4.99
2023-04-15T02:43:28.631Z,5.04
2023-04-15T02:46:33.051Z,5.09
2023-04-15T02:49:36.528Z,5.42
2023-04-15T02:52:44.268Z,5.68
2023-04-15T02:55:47.533Z,5.87
2023-04-15T02:58:56.890Z,5.95
2023-04-15T03:02:01.763Z,6.06
2023-04-15T03:05:07.053Z,6.04
2023-04-15T03:08:10.556Z,6.28
2023-04-15T03:11:17.347Z,6.49
2023-04-15T03:14:21.991Z,6.64
2023-04-15T03:17:25.604Z,6.80
2023-04-15T03:20:29.259Z,6.91
2023-04-15T03:23:33.186Z,6.98
2023-04-15T03:26:38.254Z,7.28
2023-04-15T03:29:48.805Z,7.40
2023-04-15T03:32:53.861Z,7.57
2023-04-15T03:35:58.249Z,7.73
2023-04-15T03:39:03.194Z,7.80
2023-04-15T03:42:07.846Z,7.74
2023-04-15T03:45:12.106Z,7.70
2023-04-15T03:48:18.056Z,7.70
2023-04-15T03:51:22.342Z,7.66
2023-04-15T03:54:25.615Z,7.75
2023-04-15T03:57:29.452Z,7.88
2023-04-15T04:00:32.618Z,8.02
2023-04-15T04:03:37.977Z,7.90
2023-04-15T04:06:41.705Z,7.84
2023-04-15T04:09:47.287Z,8.02
2023-04-15T04:12:51.122Z,8.05
2023-04-15T04:15:54.825Z,7.94
2023-04-15T04:18:58.922Z,7.88
2023-04-15T04:22:03.309Z,7.91
2023-04-15T04:25:09.218Z,8.02
2023-04-15T04:28:13.754Z,7.95
2023-04-15T04:31:17.776Z,7.95
2023-04-15T04:34:21.863Z,7.91
2023-04-15T04:37:26.536Z,7.90
2023-04-15T04:40:30.032Z,7.97
2023-04-15T04:43:33.176Z,8.06
2023-04-15T04:46:37.409Z,8.13
2023-04-15T04:49:41.891Z,8.21
2023-04-15T04:52:45.996Z,8.40
2023-04-15T04:55:49.947Z,8.50
2023-04-15T04:58:53.858Z,8.70
2023-04-15T05:01:57.758Z,8.89
2023-04-15T05:05:02.745Z,9.08
2023-04-15T05:08:06.646Z,9.29
2023-04-15T05:11:09.999Z,9.53
2023-04-15T05:14:13.116Z,9.76
2023-04-15T05:17:17.029Z,9.83
2023-04-15T05:20:20.602Z,9.72
2023-04-15T05:23:24.410Z,9.93
2023-04-15T05:26:28.067Z,10.07
2023-04-15T05:29:31.916Z,10.19
2023-04-15T05:32:35.692Z,10.32
2023-04-15T05:35:39.600Z,10.42
2023-04-15T05:38:43.145Z,10.56
2023-04-15T05:41:47.806Z,10.62
2023-04-15T05:44:52.302Z,10.66
2023-04-15T05:47:56.853Z,10.83
2023-04-15T05:51:01.282Z,10.93
2023-04-15T05:54:04.915Z,10.80
2023-04-15T05:57:08.809Z,10.53
2023-04-15T06:00:14.120Z,10.77
2023-04-15T06:03:17.974Z,11.17
2023-04-15T06:06:22.253Z,11.51
2023-04-15T06:09:26.255Z,11.82
2023-04-15T06:12:30.528Z,12.00
2023-04-15T06:15:34.016Z,12.07
2023-04-15T06:18:37.565Z,11.85
2023-04-15T06:21:42.010Z,11.97
2023-04-15T06:24:46.525Z,11.91
2023-04-15T06:27:50.354Z,12.14
2023-04-15T06:30:54.826Z,12.44
2023-04-15T06:33:58.528Z,12.58
2023-04-15T06:37:03.004Z,12.92
2023-04-15T06:40:10.688Z,12.97
2023-04-15T06:43:14.690Z,13.33
2023-04-15T06:46:18.524Z,13.55
2023-04-15T06:49:23.059Z,14.17
2023-04-15T06:52:26.764Z,14.68
2023-04-15T06:55:32.178Z,15.18
2023-04-15T06:58:38.632Z,15.54
2023-04-15T07:01:43.038Z,15.90
2023-04-15T07:04:46.498Z,15.92
2023-04-15T07:07:51.196Z,16.42
2023-04-15T07:10:55.597Z,16.83
2023-04-15T07:13:59.932Z,17.35
2023-04-15T07:17:03.320Z,18.25
2023-04-15T07:20:07.348Z,19.08
2023-04-15T07:23:11.407Z,19.42
2023-04-15T07:26:14.803Z,20.20
2023-04-15T07:29:18.717Z,20.69
2023-04-15T07:32:22.661Z,21.02
2023-04-15T07:35:27.204Z,21.65
2023-04-15T07:38:30.930Z,21.90
2023-04-15T07:41:34.976Z,22.05
2023-04-15T07:44:38.137Z,22.72
2023-04-15T07:47:42.718Z,22.72
2023-04-15T07:50:47.006Z,22.98
2023-04-15T07:53:51.265Z,23.34
2023-04-15T07:56:55.653Z,23.71
2023-04-15T07:59:58.949Z,24.09
2023-04-15T08:03:02.804Z,24.63
2023-04-15T08:06:07.299Z,25.10
2023-04-15T08:09:10.565Z,25.31
2023-04-15T08:12:14.133Z,25.01
2023-04-15T08:15:18.673Z,24.95
2023-04-15T08:18:22.470Z,24.80
2023-04-15T08:21:26.870Z,25.11
2023-04-15T08:24:32.119Z,25.69
2023-04-15T08:27:35.426Z,25.72
2023-04-15T08:30:39.163Z,25.91
2023-04-15T08:33:43.449Z,25.83
2023-04-15T08:36:47.036Z,25.62
2023-04-15T08:39:51.178Z,25.89
2023-04-15T08:42:58.348Z,26.82
2023-04-15T08:46:03.506Z,27.52
2023-04-15T08:49:06.568Z,28.10
2023-04-15T08:52:11.597Z,28.28
2023-04-15T08:55:16.995Z,28.07
2023-04-15T08:58:21.583Z,27.66
2023-04-15T09:01:25.579Z,27.92
2023-04-15T09:04:30.085Z,28.12
2023-04-15T09:07:36.568Z,28.67
2023-04-15T09:10:41.228Z,28.58
2023-04-15T09:13:45.174Z,28.48
2023-04-15T09:17:11.703Z,29.13
2023-04-15T09:20:17.557Z,29.37
2023-04-15T09:23:21.235Z,29.26
2023-04-15T09:26:40.707Z,26.94
2023-04-15T09:29:44.928Z,26.14
2023-04-15T09:32:57.185Z,26.35
2023-04-15T09:36:06.025Z,25.36
2023-04-15T09:39:10.080Z,23.74
2023-04-15T09:42:14.050Z,23.29
2023-04-15T09:45:17.401Z,24.91
2023-04-15T09:48:24.545Z,26.69
2023-04-15T09:51:36.578Z,27.34
2023-04-15T09:54:40.810Z,26.71
2023-04-15T09:57:48.236Z,26.87
2023-04-15T10:00:54.226Z,27.40
2023-04-15T10:04:04.773Z,27.72
2023-04-15T10:07:11.098Z,27.58
2023-04-15T10:10:16.113Z,27.75
2023-04-15T10:13:23.188Z,26.34
2023-04-15T10:16:32.095Z,25.12
2023-04-15T10:19:39.103Z,24.77
2023-04-15T10:22:42.982Z,24.40
2023-04-15T10:25:48.290Z,23.22
2023-04-15T10:28:52.914Z,21.79
2023-04-15T10:32:01.028Z,20.10
2023-04-15T10:35:06.657Z,18.76
2023-04-15T10:38:35.834Z,17.43
2023-04-15T10:41:39.503Z,16.36
2023-04-15T10:44:44.961Z,15.64
2023-04-15T10:47:55.056Z,14.92
2023-04-15T10:51:01.791Z,14.33
2023-04-15T10:54:29.709Z,13.93
2023-04-15T10:57:39.560Z,13.28
2023-04-15T11:00:52.876Z,12.76
2023-04-15T11:03:57.359Z,12.40
2023-04-15T11:07:09.337Z,11.97
2023-04-15T11:10:18.752Z,11.54
2023-04-15T11:13:25.999Z,11.28
2023-04-15T11:16:30.129Z,10.93
2023-04-15T11:19:40.045Z,10.49
2023-04-15T11:23:14.208Z,10.12
2023-04-15T11:26:18.249Z,9.90
2023-04-15T11:29:22.361Z,9.73
2023-04-15T11:32:25.514Z,9.62
2023-04-15T11:35:30.068Z,9.49
2023-04-15T11:38:35.335Z,9.46
2023-04-15T11:41:39.291Z,9.47
2023-04-15T11:44:42.966Z,9.42
2023-04-15T11:47:46.527Z,9.45
2023-04-15T11:51:04.482Z,9.39
2023-04-15T11:54:08.174Z,9.35
2023-04-15T11:57:11.096Z,9.31
2023-04-15T12:00:15.093Z,9.26
2023-04-15T12:03:21.043Z,9.22
2023-04-15T12:06:26.427Z,9.19
2023-04-15T12:09:30.927Z,9.14
2023-04-15T12:12:36.469Z,9.07
2023-04-15T12:15:40.213Z,9.01
2023-04-15T12:18:52.904Z,8.89
2023-04-15T12:22:05.923Z,8.83
2023-04-15T12:25:09.748Z,8.76
2023-04-15T12:28:13.563Z,8.71
2023-04-15T12:31:17.948Z,8.64
2023-04-15T12:34:35.426Z,8.53
2023-04-15T12:37:39.946Z,8.39
2023-04-15T12:40:43.624Z,8.38
2023-04-15T12:43:48.107Z,8.31
2023-04-15T12:46:54.423Z,8.31
2023-04-15T12:49:57.487Z,8.26
2023-04-15T12:53:00.408Z,8.26
2023-04-15T12:56:04.034Z,8.22
2023-04-15T12:59:07.098Z,8.18
2023-04-15T13:02:11.413Z,8.22
2023-04-15T13:05:16.318Z,8.16
2023-04-15T13:08:21.944Z,8.15
2023-04-15T13:11:26.063Z,8.15
2023-04-15T13:14:29.640Z,8.12
2023-04-15T13:17:32.601Z,8.16
2023-04-15T13:20:37.005Z,8.12
2023-04-15T13:23:42.443Z,8.09
2023-04-15T13:26:46.403Z,8.09
2023-04-15T13:29:50.877Z,8.05
2023-04-15T13:32:55.009Z,8.04
2023-04-15T13:35:58.739Z,8.02
2023-04-15T13:39:02.501Z,7.98
2023-04-15T13:42:06.232Z,7.97
2023-04-15T13:45:10.370Z,7.95
2023-04-15T13:48:14.229Z,7.94
2023-04-15T13:51:17.331Z,7.90
2023-04-15T13:54:20.719Z,7.87
2023-04-15T13:57:24.929Z,7.81
2023-04-15T14:00:28.058Z,7.80
2023-04-15T14:03:32.305Z,7.75
2023-04-15T14:06:36.182Z,7.74
2023-04-15T14:09:43.250Z,7.73
2023-04-15T14:12:47.208Z,7.74
2023-04-15T14:15:51.433Z,7.69
2023-04-15T14:18:54.907Z,7.66
2023-04-15T14:21:59.114Z,7.69
2023-04-15T14:25:02.531Z,7.67
2023-04-15T14:28:06.860Z,7.67
2023-04-15T14:31:10.085Z,7.63
2023-04-15T14:34:15.187Z,7.60
2023-04-15T14:37:20.036Z,7.56
2023-04-15T14:40:24.458Z,7.55
2023-04-15T14:43:28.850Z,7.56
2023-04-15T14:46:32.587Z,7.55
2023-04-15T14:49:36.114Z,7.57
2023-04-15T14:52:41.157Z,7.56
2023-04-15T14:55:47.296Z,7.55
2023-04-15T14:58:54.082Z,7.53
2023-04-15T15:01:58.249Z,7.52
2023-04-15T15:05:03.400Z,7.50
2023-04-15T15:08:09.878Z,7.52
2023-04-15T15:11:14.708Z,7.50
2023-04-15T15:14:19.223Z,7.52
2023-04-15T15:17:24.005Z,7.50
2023-04-15T15:20:28.910Z,7.52
2023-04-15T15:23:33.245Z,7.50
2023-04-15T15:26:37.020Z,7.49
2023-04-15T15:29:41.785Z,7.50
2023-04-15T15:32:46.423Z,7.49
2023-04-15T15:35:50.194Z,7.45
2023-04-15T15:38:55.517Z,7.42
2023-04-15T15:41:59.749Z,7.36
2023-04-15T15:45:05.721Z,7.35
2023-04-15T15:48:10.325Z,7.32
2023-04-15T15:51:17.347Z,7.29
2023-04-15T15:54:21.377Z,7.25
2023-04-15T15:57:24.370Z,7.16
2023-04-15T16:00:28.121Z,7.12
2023-04-15T16:03:31.305Z,7.07
2023-04-15T16:06:35.371Z,7.05
2023-04-15T16:09:41.570Z,6.98
2023-04-15T16:12:45.508Z,6.92
2023-04-15T16:15:50.929Z,6.91
2023-04-15T16:18:54.544Z,6.91
2023-04-15T16:21:58.253Z,6.94
2023-04-15T16:25:01.996Z,6.91
2023-04-15T16:28:14.821Z,6.88
2023-04-15T16:31:26.093Z,6.87
2023-04-15T16:34:30.203Z,6.87
2023-04-15T16:37:35.064Z,6.83
2023-04-15T16:40:38.960Z,6.81
2023-04-15T16:43:43.148Z,6.81
2023-04-15T16:46:46.271Z,6.83
2023-04-15T16:49:49.316Z,6.81
2023-04-15T16:52:53.603Z,6.81
2023-04-15T16:55:57.088Z,6.83
2023-04-15T16:59:00.270Z,6.81
2023-04-15T17:02:04.578Z,6.83
2023-04-15T17:05:09.244Z,6.83
2023-04-15T17:08:12.610Z,6.84
2023-04-15T17:11:16.191Z,6.85
2023-04-15T17:14:19.583Z,6.84
2023-04-15T17:17:23.712Z,6.83
2023-04-15T17:20:27.232Z,6.84
2023-04-15T17:23:30.566Z,6.83
2023-04-15T17:26:34.885Z,6.83
2023-04-15T17:29:37.971Z,6.83
2023-04-15T17:32:42.171Z,6.81
2023-04-15T17:35:45.637Z,6.76
2023-04-15T17:38:50.097Z,6.73
2023-04-15T17:41:53.230Z,6.74
2023-04-15T17:44:56.949Z,6.70
2023-04-15T17:48:04.033Z,6.69
2023-04-15T17:51:08.376Z,6.69
2023-04-15T17:54:11.605Z,6.67
2023-04-15T17:57:14.938Z,6.63
2023-04-15T18:00:18.781Z,6.60
2023-04-15T18:03:22.905Z,6.54
2023-04-15T18:06:27.801Z,6.56
2023-04-15T18:09:31.139Z,6.60
2023-04-15T18:12:34.965Z,6.53
2023-04-15T18:15:39.118Z,6.53
2023-04-15T18:18:42.663Z,6.53
2023-04-15T18:21:46.825Z,6.50
2023-04-15T18:24:52.615Z,6.44
2023-04-15T18:27:56.996Z,6.44
2023-04-15T18:31:00.345Z,6.40
2023-04-15T18:34:08.114Z,6.40
2023-04-15T18:37:11.678Z,6.32
2023-04-15T18:40:17.144Z,6.32
2023-04-15T18:43:20.555Z,6.28
2023-04-15T18:46:24.721Z,6.28
2023-04-15T18:49:28.006Z,6.23
2023-04-15T18:52:32.096Z,6.18
2023-04-15T18:55:36.424Z,6.15
2023-04-15T18:59:26.917Z,6.12
2023-04-15T19:02:04.173Z,6.13
2023-04-15T19:05:08.494Z,6.12
2023-04-15T19:08:11.789Z,6.15
2023-04-15T19:11:16.053Z,6.15
2023-04-15T19:14:19.125Z,6.15
2023-04-15T19:17:22.151Z,6.18
2023-04-15T19:20:25.217Z,6.11
2023-04-15T19:23:28.773Z,6.08
2023-04-15T19:26:32.086Z,6.06
2023-04-15T19:29:35.944Z,6.05
2023-04-15T19:32:39.817Z,6.05
2023-04-15T19:35:43.762Z,6.02
2023-04-15T19:38:46.808Z,5.98
2023-04-15T19:41:51.794Z,5.93
2023-04-15T19:44:56.492Z,5.90
2023-04-15T19:48:00.591Z,5.91
2023-04-15T19:51:03.948Z,5.87
2023-04-15T19:54:08.045Z,5.84
2023-04-15T19:57:11.370Z,5.77
2023-04-15T20:00:15.319Z,5.71
2023-04-15T20:03:19.494Z,5.67
2023-04-15T20:06:23.782Z,5.60
2023-04-15T20:09:27.162Z,5.60
2023-04-15T20:12:50.533Z,5.63
2023-04-15T20:15:54.599Z,5.63
2023-04-15T20:19:04.933Z,5.66
2023-04-15T20:22:08.766Z,5.66
2023-04-15T20:25:12.834Z,5.64
2023-04-15T20:28:18.594Z,5.66
2023-04-15T20:31:23.507Z,5.63
2023-04-15T20:34:27.329Z,5.61
2023-04-15T20:37:34.201Z,5.60
2023-04-15T20:40:39.432Z,5.54
2023-04-15T20:43:44.493Z,5.50
2023-04-15T20:46:48.305Z,5.40
2023-04-15T20:49:52.117Z,5.35
2023-04-15T20:52:55.727Z,5.26
2023-04-15T20:56:01.153Z,5.20
2023-04-15T20:59:05.322Z,5.19
2023-04-15T21:02:09.941Z,5.16
2023-04-15T21:05:13.425Z,5.19
2023-04-15T21:08:17.770Z,5.19
2023-04-15T21:11:40.613Z,5.19
2023-04-15T21:14:45.966Z,5.22
2023-04-15T21:17:49.367Z,5.28
2023-04-15T21:21:03.497Z,5.25
2023-04-15T21:24:08.312Z,5.26
2023-04-15T21:27:12.587Z,5.29
2023-04-15T21:30:16.321Z,5.29
2023-04-15T21:33:21.331Z,5.29
2023-04-15T21:36:25.262Z,5.23
2023-04-15T21:39:29.727Z,5.29
2023-04-15T21:42:33.027Z,5.29
2023-04-15T21:45:39.944Z,5.30
2023-04-15T21:48:43.452Z,5.32
2023-04-15T21:51:48.480Z,5.35
2023-04-15T21:54:52.261Z,5.37
2023-04-15T21:57:55.665Z,5.40
2023-04-15T22:01:00.819Z,5.44
2023-04-15T22:04:05.164Z,5.50
2023-04-15T22:07:08.528Z,5.53
2023-04-15T22:10:12.659Z,5.54
2023-04-15T22:13:16.446Z,5.61
2023-04-15T22:16:20.565Z,5.63
2023-04-15T22:19:24.044Z,5.68
2023-04-15T22:22:44.304Z,5.73
2023-04-15T22:25:48.809Z,5.74
2023-04-15T22:28:52.618Z,5.78
2023-04-15T22:31:56.482Z,5.83
2023-04-15T22:35:00.206Z,5.85
2023-04-15T22:38:04.574Z,5.88
2023-04-15T22:41:08.939Z,5.95
2023-04-15T22:44:12.485Z,5.98
2023-04-15T22:47:16.756Z,6.02
2023-04-15T22:50:20.285Z,6.05
2023-04-15T22:53:24.098Z,6.06
2023-04-15T22:56:27.913Z,6.12
2023-04-15T22:59:32.053Z,6.12
2023-04-15T23:02:36.195Z,6.16
2023-04-15T23:05:41.652Z,6.19
2023-04-15T23:08:48.650Z,6.28
2023-04-15T23:11:52.947Z,6.28
2023-04-15T23:14:56.660Z,6.32
2023-04-15T23:18:01.366Z,6.42
2023-04-15T23:21:05.325Z,6.46
2023-04-15T23:24:08.989Z,6.53
2023-04-15T23:27:12.580Z,6.60
2023-04-15T23:30:16.258Z,6.63
2023-04-15T23:33:19.920Z,6.73
2023-04-15T23:36:23.851Z,6.83
2023-04-15T23:39:27.227Z,6.80
2023-04-15T23:42:31.601Z,6.90
2023-04-15T23:45:34.896Z,6.88
2023-04-15T23:48:39.382Z,6.83
2023-04-15T23:51:42.983Z,6.78
2023-04-15T23:54:46.998Z,6.87
2023-04-15T23:57:50.381Z,6.95
